createdAt,value
2018-08-28T00:02:22.511Z,57.08
2018-08-28T00:04:51.489Z,56.77
2018-08-28T00:07:20.573Z,56.93
2018-08-28T00:09:49.510Z,59.21
2018-08-28T00:12:18.531Z,59.49
2018-08-28T00:14:47.473Z,58.47
2018-08-28T00:17:16.570Z,60.07
2018-08-28T00:19:45.721Z,58.91
2018-08-28T00:22:14.822Z,59.31
2018-08-28T00:24:43.788Z,58.99
2018-08-28T00:27:12.778Z,60.82
2018-08-28T00:29:41.858Z,59.87
2018-08-28T00:32:10.860Z,59.26
2018-08-28T00:34:39.847Z,59.64
2018-08-28T00:37:08.829Z,59.51
2018-08-28T00:39:37.906Z,60.01
2018-08-28T00:42:07.014Z,59.99
2018-08-28T00:44:36.030Z,60.26
2018-08-28T00:47:05.196Z,60.25
2018-08-28T00:49:34.176Z,61.27
2018-08-28T00:52:03.175Z,60.63
2018-08-28T00:54:32.109Z,60.41
2018-08-28T00:57:01.134Z,60.42
2018-08-28T00:59:30.222Z,60.99
2018-08-28T01:01:59.281Z,61.14
2018-08-28T01:04:28.341Z,61.09
2018-08-28T01:06:57.326Z,61.24
2018-08-28T01:09:26.282Z,60.67
2018-08-28T01:11:55.305Z,61.37
2018-08-28T01:14:24.223Z,61.08
2018-08-28T01:16:53.339Z,61.47
2018-08-28T01:19:22.301Z,61.17
2018-08-28T01:21:51.412Z,61.00
2018-08-28T01:24:20.376Z,61.03
2018-08-28T01:26:49.437Z,60.65
2018-08-28T01:29:18.342Z,61.21
2018-08-28T01:31:47.300Z,60.98
2018-08-28T01:34:16.217Z,62.47
2018-08-28T01:36:45.227Z,61.16
2018-08-28T01:39:14.163Z,61.82
2018-08-28T01:41:43.126Z,61.45
2018-08-28T01:44:12.077Z,61.55
2018-08-28T01:46:41.178Z,62.73
2018-08-28T01:49:10.110Z,61.70
2018-08-28T01:51:39.082Z,62.63
2018-08-28T01:54:08.017Z,63.26
2018-08-28T01:56:37.018Z,62.75
2018-08-28T01:59:05.915Z,62.73
2018-08-28T02:01:34.909Z,62.39
2018-08-28T02:04:03.915Z,62.13
2018-08-28T02:06:32.933Z,62.45
2018-08-28T02:09:01.909Z,62.30
2018-08-28T02:11:30.936Z,62.94
2018-08-28T02:13:59.833Z,62.16
2018-08-28T02:16:28.798Z,62.68
2018-08-28T02:18:57.863Z,62.19
2018-08-28T02:21:26.850Z,62.98
2018-08-28T02:23:55.859Z,62.69
2018-08-28T02:26:25.005Z,62.73
2018-08-28T02:28:54.010Z,63.13
2018-08-28T02:31:22.938Z,63.09
2018-08-28T02:33:51.990Z,62.58
2018-08-28T02:36:21.022Z,63.54
2018-08-28T02:38:50.041Z,63.13
2018-08-28T02:41:19.031Z,62.59
2018-08-28T02:43:48.033Z,62.74
2018-08-28T02:46:17.025Z,62.58
2018-08-28T02:48:46.029Z,62.98
2018-08-28T02:51:15.039Z,62.92
2018-08-28T02:53:44.252Z,62.49
2018-08-28T02:56:19.433Z,62.99
2018-08-28T02:58:48.473Z,63.50
2018-08-28T03:01:17.476Z,63.49
2018-08-28T03:03:46.466Z,64.48
2018-08-28T03:06:15.834Z,64.32
2018-08-28T03:08:44.845Z,65.94
2018-08-28T03:11:13.951Z,65.40
2018-08-28T03:13:42.958Z,63.93
2018-08-28T03:16:11.974Z,64.25
2018-08-28T03:18:40.966Z,63.90
2018-08-28T03:21:10.378Z,64.37
2018-08-28T03:23:40.130Z,63.59
2018-08-28T03:26:09.498Z,64.09
2018-08-28T03:28:38.981Z,64.00
2018-08-28T03:31:08.451Z,64.45
2018-08-28T03:33:37.451Z,64.49
2018-08-28T03:36:07.076Z,64.93
2018-08-28T03:38:36.513Z,65.16
2018-08-28T03:41:05.532Z,66.36
2018-08-28T03:43:34.522Z,65.87
2018-08-28T03:46:03.461Z,64.71
2018-08-28T03:48:32.670Z,65.08
2018-08-28T03:51:01.897Z,64.82
2018-08-28T03:53:31.194Z,64.18
2018-08-28T03:56:00.141Z,63.96
2018-08-28T03:58:29.090Z,64.21
2018-08-28T04:00:58.134Z,64.14
2018-08-28T04:03:27.109Z,63.97
2018-08-28T04:05:56.182Z,64.41
2018-08-28T04:08:25.345Z,64.53
2018-08-28T04:10:54.533Z,63.93
2018-08-28T04:13:23.659Z,64.46
2018-08-28T04:15:52.565Z,64.74
2018-08-28T04:18:21.821Z,64.81
2018-08-28T04:20:51.240Z,65.44
2018-08-28T04:23:20.177Z,65.71
2018-08-28T04:25:49.190Z,65.19
2018-08-28T04:28:18.205Z,65.37
2018-08-28T04:30:47.132Z,64.85
2018-08-28T04:33:16.165Z,65.34
2018-08-28T04:35:45.203Z,65.27
2018-08-28T04:38:14.486Z,65.11
2018-08-28T04:40:43.756Z,65.11
2018-08-28T04:43:12.957Z,64.92
2018-08-28T04:45:42.120Z,65.34
2018-08-28T04:48:11.194Z,64.87
2018-08-28T04:50:40.196Z,64.60
2018-08-28T04:53:09.369Z,65.10
2018-08-28T04:55:38.793Z,65.12
2018-08-28T04:58:07.937Z,64.67
2018-08-28T05:00:37.375Z,64.60
2018-08-28T05:03:06.453Z,64.26
2018-08-28T05:05:35.389Z,64.14
2018-08-28T05:08:04.340Z,64.08
2018-08-28T05:10:33.285Z,64.37
2018-08-28T05:13:02.211Z,64.97
2018-08-28T05:15:31.162Z,65.37
2018-08-28T05:18:00.326Z,65.35
2018-08-28T05:20:29.623Z,65.32
2018-08-28T05:22:58.947Z,64.84
2018-08-28T05:25:27.950Z,64.82
2018-08-28T05:27:56.978Z,67.49
2018-08-28T05:30:26.125Z,67.15
2018-08-28T05:32:55.354Z,66.57
2018-08-28T05:35:24.317Z,66.53
2018-08-28T05:37:53.408Z,65.07
2018-08-28T05:40:22.462Z,65.13
2018-08-28T05:42:51.503Z,70.52
2018-08-28T05:45:20.570Z,71.10
2018-08-28T05:47:50.028Z,69.97
2018-08-28T05:50:19.422Z,71.67
2018-08-28T05:52:48.881Z,71.99
2018-08-28T05:55:17.881Z,71.95
2018-08-28T05:57:49.707Z,71.59
2018-08-28T06:00:19.161Z,71.26
2018-08-28T06:02:48.451Z,72.48
2018-08-28T06:05:17.582Z,72.69
2018-08-28T06:07:46.821Z,72.62
2018-08-28T06:10:16.254Z,73.60
2018-08-28T06:12:45.841Z,71.66
2018-08-28T06:15:15.185Z,71.35
2018-08-28T06:17:44.148Z,70.55
2018-08-28T06:20:13.133Z,69.93
2018-08-28T06:22:42.450Z,68.06
2018-08-28T06:25:11.680Z,68.31
2018-08-28T06:27:40.847Z,66.05
2018-08-28T06:30:10.130Z,66.55
2018-08-28T06:32:39.317Z,66.78
2018-08-28T06:35:08.316Z,68.11
2018-08-28T06:37:37.328Z,66.56
2018-08-28T06:40:06.286Z,67.35
2018-08-28T06:42:35.322Z,67.99
2018-08-28T06:45:04.662Z,68.44
2018-08-28T06:47:33.765Z,67.73
2018-08-28T06:50:03.129Z,67.36
2018-08-28T06:52:32.419Z,66.79
2018-08-28T06:55:01.758Z,66.19
2018-08-28T06:57:31.185Z,65.04
2018-08-28T07:00:00.522Z,64.15
2018-08-28T07:02:29.899Z,65.05
2018-08-28T07:04:59.125Z,64.27
2018-08-28T07:07:28.222Z,63.87
2018-08-28T07:09:57.518Z,62.89
2018-08-28T07:12:27.134Z,64.06
2018-08-28T07:14:56.363Z,63.82
2018-08-28T07:17:26.256Z,62.26
2018-08-28T07:19:56.593Z,63.98
2018-08-28T07:22:27.089Z,63.18
2018-08-28T07:24:57.551Z,63.82
2018-08-28T07:27:27.631Z,62.34
2018-08-28T07:29:57.704Z,59.76
2018-08-28T07:32:27.665Z,59.27
2018-08-28T07:34:58.120Z,58.91
2018-08-28T07:37:27.826Z,56.71
2018-08-28T07:39:58.239Z,56.24
2018-08-28T07:42:27.505Z,56.32
2018-08-28T07:44:57.824Z,57.25
2018-08-28T07:47:27.310Z,58.03
2018-08-28T07:49:56.244Z,57.43
2018-08-28T07:52:25.214Z,57.49
2018-08-28T07:54:54.152Z,55.62
2018-08-28T07:57:23.441Z,54.83
2018-08-28T07:59:53.629Z,56.16
2018-08-28T08:02:24.177Z,53.43
2018-08-28T08:04:53.933Z,51.83
2018-08-28T08:07:25.761Z,51.57
2018-08-28T08:09:55.301Z,52.74
2018-08-28T08:12:25.689Z,52.40
2018-08-28T08:14:56.197Z,50.08
2018-08-28T08:17:26.182Z,49.83
2018-08-28T08:19:56.270Z,48.42
2018-08-28T08:22:26.594Z,48.90
2018-08-28T08:24:55.957Z,47.44
2018-08-28T08:27:24.973Z,47.88
2018-08-28T08:29:54.581Z,47.39
2018-08-28T08:32:24.273Z,45.42
2018-08-28T08:34:53.909Z,45.36
2018-08-28T08:37:24.358Z,44.56
2018-08-28T08:39:54.137Z,43.65
2018-08-28T08:42:24.001Z,42.75
2018-08-28T08:44:54.153Z,42.83
2018-08-28T08:47:23.443Z,44.83
2018-08-28T08:49:52.390Z,45.00
2018-08-28T08:52:21.360Z,42.55
2018-08-28T08:54:50.600Z,43.17
2018-08-28T08:57:20.755Z,41.11
2018-08-28T08:59:50.541Z,39.52
2018-08-28T09:02:20.717Z,40.83
2018-08-28T09:04:50.636Z,40.95
2018-08-28T09:07:21.009Z,38.39
2018-08-28T09:09:51.275Z,42.12
2018-08-28T09:12:20.249Z,39.41
2018-08-28T09:14:49.219Z,39.52
2018-08-28T09:17:18.477Z,38.80
2018-08-28T09:19:47.466Z,40.50
2018-08-28T09:22:17.329Z,37.26
2018-08-28T09:24:47.230Z,41.22
2018-08-28T09:27:16.936Z,38.47
2018-08-28T09:29:46.668Z,38.45
2018-08-28T09:32:16.349Z,36.88
2018-08-28T09:34:45.982Z,38.80
2018-08-28T09:37:16.131Z,40.19
2018-08-28T09:39:45.726Z,39.27
2018-08-28T09:42:14.828Z,40.65
2018-08-28T09:44:43.837Z,39.37
2018-08-28T09:47:12.826Z,40.49
2018-08-28T09:49:41.780Z,37.20
2018-08-28T09:52:11.595Z,35.58
2018-08-28T09:54:41.246Z,37.88
2018-08-28T09:57:10.962Z,36.79
2018-08-28T09:59:40.944Z,37.88
2018-08-28T10:02:11.118Z,38.89
2018-08-28T10:04:40.824Z,35.60
2018-08-28T10:07:11.118Z,36.78
2018-08-28T10:09:41.183Z,35.82
2018-08-28T10:12:10.257Z,37.24
2018-08-28T10:14:39.288Z,38.88
2018-08-28T10:17:08.762Z,39.26
2018-08-28T10:19:38.009Z,37.15
2018-08-28T10:22:08.428Z,40.04
2018-08-28T10:24:38.044Z,38.25
2018-08-28T10:27:07.748Z,38.86
2018-08-28T10:29:37.221Z,36.53
2018-08-28T10:32:06.574Z,34.34
2018-08-28T10:34:35.647Z,35.09
2018-08-28T10:37:06.042Z,35.37
2018-08-28T10:39:35.721Z,34.96
2018-08-28T10:42:05.192Z,32.07
2018-08-28T10:44:34.920Z,33.40
2018-08-28T10:47:04.577Z,33.33
2018-08-28T10:49:34.422Z,36.93
2018-08-28T10:52:04.837Z,36.36
2018-08-28T10:54:34.799Z,34.21
2018-08-28T10:57:04.802Z,30.94
2018-08-28T10:59:35.048Z,32.48
2018-08-28T11:02:05.184Z,35.27
2018-08-28T11:04:35.161Z,35.65
2018-08-28T11:07:04.822Z,35.22
2018-08-28T11:09:34.553Z,34.68
2018-08-28T11:12:04.165Z,35.76
2018-08-28T11:14:33.194Z,35.87
2018-08-28T11:17:02.098Z,33.73
2018-08-28T11:19:31.157Z,32.90
2018-08-28T11:22:00.131Z,32.91
2018-08-28T11:24:29.998Z,30.59
2018-08-28T11:26:59.888Z,30.01
2018-08-28T11:29:29.524Z,32.17
2018-08-28T11:31:59.189Z,33.15
2018-08-28T11:34:28.897Z,34.37
2018-08-28T11:36:58.532Z,33.79
2018-08-28T11:39:28.155Z,32.67
2018-08-28T11:41:57.126Z,32.76
2018-08-28T11:44:26.333Z,29.22
2018-08-28T11:46:55.399Z,33.60
2018-08-28T11:49:24.403Z,33.44
2018-08-28T11:51:54.186Z,31.88
2018-08-28T11:54:24.250Z,29.28
2018-08-28T11:56:54.227Z,28.82
2018-08-28T11:59:24.535Z,30.30
2018-08-28T12:01:54.656Z,31.80
2018-08-28T12:04:25.419Z,30.87
2018-08-28T12:06:55.256Z,33.35
2018-08-28T12:09:25.557Z,33.21
2018-08-28T12:11:54.579Z,31.70
2018-08-28T12:14:23.837Z,29.41
2018-08-28T12:16:53.201Z,27.53
2018-08-28T12:19:22.621Z,26.41
2018-08-28T12:21:52.725Z,27.86
2018-08-28T12:24:23.896Z,32.03
2018-08-28T12:26:53.941Z,28.52
2018-08-28T12:29:24.109Z,28.46
2018-08-28T12:31:54.356Z,26.51
2018-08-28T12:34:24.429Z,27.76
2018-08-28T12:36:54.103Z,31.46
2018-08-28T12:39:23.363Z,32.07
2018-08-28T12:41:52.368Z,31.94
2018-08-28T12:44:21.457Z,28.05
2018-08-28T12:46:50.415Z,27.59
2018-08-28T12:49:20.594Z,26.70
2018-08-28T12:51:50.694Z,27.13
2018-08-28T12:54:20.953Z,25.15
2018-08-28T12:56:50.715Z,25.59
2018-08-28T12:59:20.713Z,26.94
2018-08-28T13:01:50.764Z,31.78
2018-08-28T13:04:20.933Z,27.22
2018-08-28T13:06:50.609Z,30.14
2018-08-28T13:09:19.997Z,30.76
2018-08-28T13:11:49.400Z,30.64
2018-08-28T13:14:18.466Z,30.39
2018-08-28T13:16:47.449Z,28.23
2018-08-28T13:19:17.171Z,28.33
2018-08-28T13:21:46.838Z,27.25
2018-08-28T13:24:16.809Z,27.05
2018-08-28T13:26:47.312Z,24.30
2018-08-28T13:29:17.633Z,23.71
2018-08-28T13:31:47.730Z,27.42
2018-08-28T13:34:17.773Z,28.39
2018-08-28T13:36:46.741Z,24.59
2018-08-28T13:39:15.980Z,23.37
2018-08-28T13:41:45.094Z,22.91
2018-08-28T13:44:14.171Z,22.36
2018-08-28T13:46:44.208Z,22.35
2018-08-28T13:49:13.861Z,29.53
2018-08-28T13:51:43.880Z,29.41
2018-08-28T13:54:14.137Z,27.02
2018-08-28T13:56:43.968Z,27.24
2018-08-28T13:59:14.175Z,30.09
2018-08-28T14:01:43.844Z,28.58
2018-08-28T14:04:12.836Z,24.92
2018-08-28T14:06:42.102Z,25.26
2018-08-28T14:09:11.274Z,24.57
2018-08-28T14:11:40.214Z,25.38
2018-08-28T14:14:10.013Z,26.23
2018-08-28T14:16:39.654Z,27.02
2018-08-28T14:19:09.653Z,22.15
2018-08-28T14:21:39.759Z,23.60
2018-08-28T14:24:09.944Z,24.65
2018-08-28T14:26:40.275Z,23.40
2018-08-28T14:29:10.718Z,24.14
2018-08-28T14:31:40.762Z,24.22
2018-08-28T14:34:10.131Z,25.56
2018-08-28T14:36:40.078Z,27.59
2018-08-28T14:39:10.111Z,28.16
2018-08-28T14:41:40.105Z,28.61
2018-08-28T14:44:09.978Z,27.54
2018-08-28T14:46:39.544Z,28.41
2018-08-28T14:49:09.254Z,28.62
2018-08-28T14:51:38.990Z,23.86
2018-08-28T14:54:07.961Z,24.69
2018-08-28T14:56:37.091Z,28.68
2018-08-28T14:59:07.133Z,28.09
2018-08-28T15:01:36.118Z,26.74
2018-08-28T15:04:06.189Z,26.93
2018-08-28T15:06:36.431Z,25.30
2018-08-28T15:09:07.651Z,26.66
2018-08-28T15:11:37.429Z,26.64
2018-08-28T15:14:07.053Z,28.30
2018-08-28T15:16:36.895Z,28.28
2018-08-28T15:19:06.715Z,27.12
2018-08-28T15:21:36.315Z,25.04
2018-08-28T15:24:05.254Z,26.50
2018-08-28T15:26:34.215Z,26.86
2018-08-28T15:29:03.189Z,27.96
2018-08-28T15:31:32.176Z,27.94
2018-08-28T15:34:01.800Z,28.17
2018-08-28T15:36:31.507Z,27.66
2018-08-28T15:39:01.156Z,27.72
2018-08-28T15:41:30.584Z,27.21
2018-08-28T15:43:59.952Z,28.14
2018-08-28T15:46:29.309Z,28.54
2018-08-28T15:48:58.337Z,29.05
2018-08-28T15:51:27.476Z,30.18
2018-08-28T15:53:56.309Z,30.01
2018-08-28T15:56:25.289Z,29.77
2018-08-28T15:58:54.330Z,28.58
2018-08-28T16:01:24.138Z,27.94
2018-08-28T16:03:53.078Z,28.90
2018-08-28T16:06:22.171Z,28.99
2018-08-28T16:08:51.413Z,29.26
2018-08-28T16:11:20.579Z,27.83
2018-08-28T16:13:49.556Z,28.34
2018-08-28T16:16:18.534Z,29.30
2018-08-28T16:18:47.735Z,29.80
2018-08-28T16:21:16.770Z,29.77
2018-08-28T16:23:47.466Z,30.24
2018-08-28T16:26:16.450Z,31.06
2018-08-28T16:28:45.475Z,30.92
2018-08-28T16:31:14.458Z,30.71
2018-08-28T16:33:43.562Z,30.31
2018-08-28T16:36:13.253Z,30.95
2018-08-28T16:38:42.181Z,30.59
2018-08-28T16:41:11.251Z,31.12
2018-08-28T16:43:40.122Z,29.39
2018-08-28T16:46:09.270Z,30.30
2018-08-28T16:48:38.250Z,29.53
2018-08-28T16:51:07.242Z,28.74
2018-08-28T16:53:36.511Z,28.29
2018-08-28T16:56:05.912Z,29.43
2018-08-28T16:58:35.446Z,28.78
2018-08-28T17:01:04.490Z,29.25
2018-08-28T17:03:33.408Z,29.32
2018-08-28T17:06:03.366Z,29.23
2018-08-28T17:08:32.605Z,30.12
2018-08-28T17:11:01.868Z,30.12
2018-08-28T17:13:30.894Z,30.59
2018-08-28T17:16:00.401Z,30.97
2018-08-28T17:18:29.530Z,32.08
2018-08-28T17:20:58.835Z,32.20
2018-08-28T17:23:27.793Z,32.37
2018-08-28T17:25:56.805Z,33.50
2018-08-28T17:28:25.874Z,32.76
2018-08-28T17:30:54.898Z,32.95
2018-08-28T17:33:24.195Z,32.88
2018-08-28T17:35:53.304Z,33.24
2018-08-28T17:38:22.233Z,33.28
2018-08-28T17:40:51.271Z,33.04
2018-08-28T17:43:20.182Z,33.81
2018-08-28T17:45:49.154Z,33.72
2018-08-28T17:48:18.134Z,32.56
2018-08-28T17:50:47.173Z,33.89
2018-08-28T17:53:16.259Z,33.57
2018-08-28T17:55:45.332Z,34.27
2018-08-28T17:58:14.364Z,34.76
2018-08-28T18:00:43.453Z,33.59
2018-08-28T18:03:12.464Z,33.58
2018-08-28T18:05:41.418Z,34.26
2018-08-28T18:08:10.425Z,34.25
2018-08-28T18:10:39.468Z,34.13
2018-08-28T18:13:09.062Z,33.92
2018-08-28T18:15:38.217Z,33.75
2018-08-28T18:18:07.281Z,33.74
2018-08-28T18:20:36.166Z,33.74
2018-08-28T18:23:05.191Z,33.79
2018-08-28T18:25:34.174Z,34.37
2018-08-28T18:28:03.203Z,34.56
2018-08-28T18:30:32.112Z,33.66
2018-08-28T18:33:01.058Z,33.64
2018-08-28T18:35:30.006Z,33.79
2018-08-28T18:37:59.296Z,34.76
2018-08-28T18:40:28.194Z,34.78
2018-08-28T18:42:57.226Z,34.43
2018-08-28T18:45:26.196Z,35.28
2018-08-28T18:47:55.224Z,34.94
2018-08-28T18:50:24.303Z,34.79
2018-08-28T18:52:53.239Z,35.35
2018-08-28T18:55:22.270Z,36.63
2018-08-28T18:57:51.284Z,36.06
2018-08-28T19:00:20.456Z,35.17
2018-08-28T19:02:49.753Z,34.43
2018-08-28T19:05:18.843Z,34.95
2018-08-28T19:07:47.915Z,34.26
2018-08-28T19:10:17.115Z,34.01
2018-08-28T19:12:46.380Z,34.61
2018-08-28T19:15:15.371Z,34.78
2018-08-28T19:17:44.422Z,35.21
2018-08-28T19:20:13.826Z,35.05
2018-08-28T19:22:42.931Z,34.84
2018-08-28T19:25:12.194Z,34.47
2018-08-28T19:27:41.269Z,35.20
2018-08-28T19:30:10.261Z,35.15
2018-08-28T19:32:39.290Z,35.23
2018-08-28T19:35:08.208Z,36.16
2018-08-28T19:37:37.180Z,36.59
2018-08-28T19:40:06.954Z,37.77
2018-08-28T19:42:35.953Z,36.22
2018-08-28T19:45:04.942Z,36.47
2018-08-28T19:47:34.430Z,36.33
2018-08-28T19:50:03.440Z,37.01
2018-08-28T19:52:32.413Z,37.58
2018-08-28T19:55:01.377Z,36.54
2018-08-28T19:57:31.177Z,35.99
2018-08-28T20:00:00.235Z,36.46
2018-08-28T20:02:29.345Z,36.77
2018-08-28T20:04:58.442Z,36.84
2018-08-28T20:07:27.575Z,36.34
2018-08-28T20:09:56.559Z,36.95
2018-08-28T20:12:25.867Z,36.88
2018-08-28T20:14:54.872Z,36.91
2018-08-28T20:17:23.927Z,37.07
2018-08-28T20:19:53.329Z,37.31
2018-08-28T20:22:22.300Z,37.74
2018-08-28T20:24:51.335Z,38.49
2018-08-28T20:27:20.359Z,37.95
2018-08-28T20:29:49.351Z,37.75
2018-08-28T20:32:18.364Z,37.87
2018-08-28T20:34:47.330Z,38.39
2018-08-28T20:37:17.001Z,39.25
2018-08-28T20:39:45.974Z,38.14
2018-08-28T20:42:15.047Z,38.33
2018-08-28T20:44:44.002Z,39.42
2018-08-28T20:47:12.991Z,38.81
2018-08-28T20:49:42.078Z,39.08
2018-08-28T20:52:10.985Z,39.13
2018-08-28T20:54:39.994Z,39.55
2018-08-28T20:57:08.957Z,39.69
2018-08-28T20:59:37.957Z,38.67
2018-08-28T21:02:06.968Z,39.38
2018-08-28T21:04:35.999Z,39.80
2018-08-28T21:07:05.068Z,39.56
2018-08-28T21:09:34.049Z,39.72
2018-08-28T21:12:03.007Z,39.65
2018-08-28T21:14:32.114Z,40.05
2018-08-28T21:17:01.094Z,39.94
2018-08-28T21:19:30.170Z,40.71
2018-08-28T21:21:59.176Z,40.83
2018-08-28T21:24:28.480Z,40.97
2018-08-28T21:26:57.459Z,41.67
2018-08-28T21:29:26.624Z,40.82
2018-08-28T21:31:55.515Z,40.37
2018-08-28T21:34:24.653Z,41.70
2018-08-28T21:36:53.833Z,42.02
2018-08-28T21:39:22.961Z,42.23
2018-08-28T21:41:51.928Z,42.87
2018-08-28T21:44:20.895Z,43.66
2018-08-28T21:46:49.825Z,44.32
2018-08-28T21:49:18.822Z,43.08
2018-08-28T21:51:47.837Z,42.28
2018-08-28T21:54:16.848Z,43.16
2018-08-28T21:56:45.806Z,42.36
2018-08-28T21:59:14.787Z,42.73
2018-08-28T22:01:43.854Z,43.65
2018-08-28T22:04:12.949Z,42.89
2018-08-28T22:06:47.212Z,42.87
2018-08-28T22:09:16.347Z,43.92
2018-08-28T22:11:45.711Z,43.65
2018-08-28T22:14:14.762Z,43.86
2018-08-28T22:16:43.777Z,44.34
2018-08-28T22:19:12.928Z,45.17
2018-08-28T22:21:41.846Z,44.69
2018-08-28T22:24:10.813Z,44.77
2018-08-28T22:26:39.834Z,45.20
2018-08-28T22:29:09.024Z,43.98
2018-08-28T22:31:38.043Z,44.70
2018-08-28T22:34:07.338Z,44.18
2018-08-28T22:36:36.341Z,44.70
2018-08-28T22:39:06.121Z,44.58
2018-08-28T22:41:35.397Z,45.38
2018-08-28T22:44:04.470Z,45.92
2018-08-28T22:46:33.422Z,46.18
2018-08-28T22:49:02.590Z,49.01
2018-08-28T22:51:31.501Z,49.89
2018-08-28T22:54:00.446Z,48.68
2018-08-28T22:56:29.359Z,47.49
2018-08-28T22:58:58.331Z,46.71
2018-08-28T23:01:27.345Z,46.53
2018-08-28T23:03:56.285Z,45.90
2018-08-28T23:06:25.261Z,47.16
2018-08-28T23:08:54.246Z,47.10
2018-08-28T23:11:23.262Z,48.14
2018-08-28T23:13:52.262Z,49.29
2018-08-28T23:16:21.231Z,51.88
2018-08-28T23:18:50.226Z,51.60
2018-08-28T23:21:19.159Z,49.87
2018-08-28T23:23:48.285Z,49.42
2018-08-28T23:26:17.226Z,48.99
2018-08-28T23:28:46.159Z,49.67
2018-08-28T23:31:15.115Z,49.21
2018-08-28T23:33:44.126Z,51.51
2018-08-28T23:36:13.103Z,50.33
2018-08-28T23:38:42.045Z,51.75
2018-08-28T23:41:11.044Z,50.07
2018-08-28T23:43:39.989Z,51.51
2018-08-28T23:46:20.253Z,51.82
2018-08-28T23:48:49.523Z,51.52
2018-08-28T23:51:18.496Z,53.85
2018-08-28T23:53:47.400Z,54.13
2018-08-28T23:56:16.370Z,53.08
2018-08-28T23:58:45.331Z,52.41
